createdAt,value
2018-11-05T00:00:05.240Z,38.02
2018-11-05T00:00:36.968Z,46.65
2018-11-05T00:01:08.146Z,48.92
2018-11-05T00:01:39.386Z,47.03
2018-11-05T00:02:10.521Z,53.45
2018-11-05T00:02:41.663Z,49.73
2018-11-05T00:03:12.789Z,48.58
2018-11-05T00:03:43.922Z,49.73
2018-11-05T00:04:15.056Z,53.95
2018-11-05T00:04:46.253Z,55.65
2018-11-05T00:05:17.436Z,55.20
2018-11-05T00:05:48.611Z,49.75
2018-11-05T00:06:19.786Z,53.45
2018-11-05T00:06:50.899Z,53.45
2018-11-05T00:07:22.041Z,51.15
2018-11-05T00:07:53.186Z,53.15
2018-11-05T00:08:24.301Z,55.65
2018-11-05T00:08:55.421Z,50.98
2018-11-05T00:09:26.545Z,53.98
2018-11-05T00:09:57.687Z,59.93
2018-11-05T00:10:28.791Z,64.82
2018-11-05T00:10:59.961Z,61.83
2018-11-05T00:11:31.061Z,59.38
2018-11-05T00:12:02.157Z,64.53
2018-11-05T00:12:33.279Z,62.03
2018-11-05T00:13:04.372Z,63.63
2018-11-05T00:13:35.492Z,63.00
2018-11-05T00:14:06.641Z,60.55
2018-11-05T00:14:37.781Z,52.03
2018-11-05T00:15:08.910Z,56.90
2018-11-05T00:15:40.010Z,57.00
2018-11-05T00:16:11.168Z,60.00
2018-11-05T00:16:42.298Z,55.78
2018-11-05T00:17:13.446Z,51.48
2018-11-05T00:17:44.552Z,56.55
2018-11-05T00:18:15.643Z,64.65
2018-11-05T00:18:46.770Z,60.85
2018-11-05T00:19:17.896Z,58.98
2018-11-05T00:19:49.049Z,60.45
2018-11-05T00:20:20.207Z,65.62
2018-11-05T00:20:51.325Z,68.15
2018-11-05T00:21:22.444Z,63.25
2018-11-05T00:21:53.550Z,60.48
2018-11-05T00:22:24.740Z,63.35
2018-11-05T00:22:56.003Z,61.98
2018-11-05T00:23:27.100Z,63.25
2018-11-05T00:23:58.274Z,64.62
2018-11-05T00:24:29.414Z,64.55
2018-11-05T00:25:00.514Z,67.82
2018-11-05T00:25:31.610Z,62.75
2018-11-05T00:26:02.719Z,63.60
2018-11-05T00:26:33.822Z,62.60
2018-11-05T00:27:04.936Z,65.17
2018-11-05T00:27:36.092Z,67.67
2018-11-05T00:28:07.247Z,67.80
2018-11-05T00:28:38.391Z,67.67
2018-11-05T00:29:09.548Z,69.17
2018-11-05T00:29:40.721Z,66.92
2018-11-05T00:30:11.863Z,64.75
2018-11-05T00:30:42.986Z,61.83
2018-11-05T00:31:14.126Z,67.78
2018-11-05T00:31:45.259Z,59.48
2018-11-05T00:32:16.368Z,62.73
2018-11-05T00:32:47.467Z,66.15
2018-11-05T00:33:18.625Z,69.22
2018-11-05T00:33:49.738Z,63.87
2018-11-05T00:34:20.875Z,66.62
2018-11-05T00:34:52.007Z,68.92
2018-11-05T00:35:23.131Z,67.97
2018-11-05T00:35:54.294Z,60.60
2018-11-05T00:36:25.446Z,66.17
2018-11-05T00:36:56.562Z,63.23
2018-11-05T00:37:27.675Z,63.83
2018-11-05T00:37:58.811Z,68.72
2018-11-05T00:38:29.958Z,65.80
2018-11-05T00:39:01.202Z,63.58
2018-11-05T00:39:32.387Z,63.95
2018-11-05T00:40:03.540Z,63.90
2018-11-05T00:40:34.778Z,64.47
2018-11-05T00:41:05.926Z,64.32
2018-11-05T00:41:37.040Z,70.15
2018-11-05T00:42:08.163Z,70.45
2018-11-05T00:42:39.416Z,70.22
2018-11-05T00:43:10.550Z,69.70
2018-11-05T00:43:41.735Z,68.22
2018-11-05T00:44:12.857Z,69.75
2018-11-05T00:44:43.989Z,69.58
2018-11-05T00:45:15.109Z,67.55
2018-11-05T00:45:46.260Z,74.77
2018-11-05T00:46:17.379Z,70.00
2018-11-05T00:46:48.541Z,71.20
2018-11-05T00:47:19.684Z,71.80
2018-11-05T00:47:50.876Z,67.62
2018-11-05T00:48:22.018Z,71.47
2018-11-05T00:48:53.152Z,64.53
2018-11-05T00:49:24.334Z,71.30
2018-11-05T00:49:55.466Z,74.82
2018-11-05T00:50:26.601Z,68.85
2018-11-05T00:50:57.711Z,73.45
2018-11-05T00:51:28.807Z,76.07
2018-11-05T00:51:59.905Z,75.32
2018-11-05T00:52:31.002Z,75.25
2018-11-05T00:53:02.101Z,75.05
2018-11-05T00:53:33.215Z,73.50
2018-11-05T00:54:04.344Z,72.10
2018-11-05T00:54:35.510Z,74.22
2018-11-05T00:55:06.627Z,76.15
2018-11-05T00:55:37.999Z,69.20
2018-11-05T00:56:09.191Z,73.83
2018-11-05T00:56:40.334Z,71.62
2018-11-05T00:57:11.492Z,73.55
2018-11-05T00:57:42.614Z,74.53
2018-11-05T00:58:13.757Z,75.65
2018-11-05T00:58:44.883Z,76.33
2018-11-05T00:59:16.015Z,73.25
2018-11-05T00:59:47.160Z,80.65
2018-11-05T01:00:18.368Z,78.22
2018-11-05T01:00:49.551Z,78.20
2018-11-05T01:01:20.661Z,69.40
2018-11-05T01:01:51.768Z,77.15
2018-11-05T01:02:22.917Z,75.65
2018-11-05T01:02:54.024Z,75.42
2018-11-05T01:03:25.131Z,75.95
2018-11-05T01:03:56.238Z,76.37
2018-11-05T01:04:27.403Z,75.12
2018-11-05T01:04:58.498Z,76.65
2018-11-05T01:05:29.648Z,80.87
2018-11-05T01:06:00.811Z,77.32
2018-11-05T01:06:32.022Z,77.05
2018-11-05T01:07:03.159Z,77.22
2018-11-05T01:07:34.267Z,73.12
2018-11-05T01:08:05.436Z,76.37
2018-11-05T01:08:37.616Z,75.35
2018-11-05T01:09:08.714Z,74.05
2018-11-05T01:09:39.819Z,73.52
2018-11-05T01:10:10.928Z,76.42
2018-11-05T01:10:42.047Z,75.30
2018-11-05T01:11:13.166Z,72.20
2018-11-05T01:11:44.292Z,69.80
2018-11-05T01:12:15.427Z,73.72
2018-11-05T01:12:46.558Z,70.32
2018-11-05T01:13:17.654Z,71.75
2018-11-05T01:13:48.779Z,76.57
2018-11-05T01:14:19.929Z,69.55
2018-11-05T01:14:51.068Z,69.65
2018-11-05T01:15:22.212Z,75.92
2018-11-05T01:15:53.350Z,77.32
2018-11-05T01:16:24.494Z,76.80
2018-11-05T01:16:55.623Z,76.35
2018-11-05T01:17:26.726Z,76.02
2018-11-05T01:17:57.832Z,76.45
2018-11-05T01:18:28.940Z,71.05
2018-11-05T01:19:00.155Z,73.90
2018-11-05T01:19:31.328Z,76.57
2018-11-05T01:20:02.438Z,73.00
2018-11-05T01:20:33.575Z,74.97
2018-11-05T01:21:04.746Z,74.22
2018-11-05T01:21:35.877Z,77.53
2018-11-05T01:22:06.992Z,77.37
2018-11-05T01:22:38.100Z,79.62
2018-11-05T01:23:09.197Z,75.37
2018-11-05T01:23:40.321Z,77.10
2018-11-05T01:24:11.432Z,72.42
2018-11-05T01:24:42.560Z,73.30
2018-11-05T01:25:13.730Z,70.22
2018-11-05T01:25:44.890Z,71.37
2018-11-05T01:26:16.007Z,68.52
2018-11-05T01:26:47.124Z,74.27
2018-11-05T01:27:18.289Z,69.10
2018-11-05T01:27:49.403Z,68.65
2018-11-05T01:28:20.499Z,67.40
2018-11-05T01:28:51.613Z,67.67
2018-11-05T01:29:22.760Z,71.70
2018-11-05T01:29:53.919Z,67.08
2018-11-05T01:30:25.029Z,73.05
2018-11-05T01:30:56.157Z,64.37
2018-11-05T01:31:27.263Z,71.47
2018-11-05T01:31:58.419Z,66.10
2018-11-05T01:32:29.542Z,67.42
2018-11-05T01:33:00.657Z,66.62
2018-11-05T01:33:31.790Z,60.00
2018-11-05T01:34:02.935Z,64.65
2018-11-05T01:34:34.101Z,67.97
2018-11-05T01:35:05.218Z,61.25
2018-11-05T01:35:36.340Z,62.88
2018-11-05T01:36:07.448Z,59.55
2018-11-05T01:36:38.558Z,60.90
2018-11-05T01:37:09.745Z,58.40
2018-11-05T01:37:40.851Z,62.43
2018-11-05T01:38:12.036Z,63.35
2018-11-05T01:38:43.178Z,63.65
2018-11-05T01:39:14.318Z,66.37
2018-11-05T01:39:45.478Z,61.68
2018-11-05T01:40:16.619Z,66.33
2018-11-05T01:40:47.725Z,65.15
2018-11-05T01:41:18.849Z,64.70
2018-11-05T01:41:50.031Z,58.73
2018-11-05T01:42:21.138Z,61.33
2018-11-05T01:42:52.256Z,60.05
2018-11-05T01:43:23.360Z,59.05
2018-11-05T01:43:54.499Z,64.10
2018-11-05T01:44:25.631Z,58.75
2018-11-05T01:44:56.756Z,60.55
2018-11-05T01:45:27.907Z,58.95
2018-11-05T01:45:59.019Z,56.20
2018-11-05T01:46:30.139Z,56.92
2018-11-05T01:47:01.294Z,58.02
2018-11-05T01:47:32.404Z,54.33
2018-11-05T01:48:03.554Z,61.45
2018-11-05T01:48:35.376Z,56.95
2018-11-05T01:49:06.483Z,56.02
2018-11-05T01:49:37.602Z,59.40
2018-11-05T01:50:08.709Z,56.40
2018-11-05T01:50:39.875Z,59.25
2018-11-05T01:51:11.008Z,60.50
2018-11-05T01:51:42.137Z,62.30
2018-11-05T01:52:13.262Z,65.85
2018-11-05T01:52:44.395Z,64.03
2018-11-05T01:53:15.505Z,60.50
2018-11-05T01:53:46.613Z,61.40
2018-11-05T01:54:17.720Z,65.40
2018-11-05T01:54:48.825Z,60.33
2018-11-05T01:55:19.998Z,60.25
2018-11-05T01:55:51.098Z,56.63
2018-11-05T01:56:22.235Z,61.68
2018-11-05T01:56:53.364Z,59.70
2018-11-05T01:57:24.491Z,58.73
2018-11-05T01:57:55.635Z,62.58
2018-11-05T01:58:26.760Z,61.55
2018-11-05T01:58:57.884Z,59.03
2018-11-05T01:59:29.006Z,60.38
2018-11-05T02:00:00.120Z,64.75
2018-11-05T02:00:31.275Z,69.53
2018-11-05T02:01:02.398Z,64.55
2018-11-05T02:01:33.558Z,71.05
2018-11-05T02:02:04.702Z,67.80
2018-11-05T02:02:35.858Z,67.00
2018-11-05T02:03:07.028Z,69.05
2018-11-05T02:03:38.150Z,68.30
2018-11-05T02:04:09.261Z,68.17
2018-11-05T02:04:40.390Z,68.12
2018-11-05T02:05:11.534Z,67.27
2018-11-05T02:05:42.644Z,62.70
2018-11-05T02:06:13.770Z,68.55
2018-11-05T02:06:44.894Z,69.03
2018-11-05T02:07:16.047Z,66.25
2018-11-05T02:07:47.167Z,66.40
2018-11-05T02:08:18.298Z,68.72
2018-11-05T02:08:49.389Z,68.28
2018-11-05T02:09:20.495Z,68.70
2018-11-05T02:09:51.623Z,67.40
2018-11-05T02:10:22.788Z,70.00
2018-11-05T02:10:53.900Z,69.00
2018-11-05T02:11:25.028Z,68.28
2018-11-05T02:11:56.171Z,67.10
2018-11-05T02:12:27.349Z,65.67
2018-11-05T02:12:58.477Z,72.72
2018-11-05T02:13:29.620Z,66.15
2018-11-05T02:14:00.755Z,73.45
2018-11-05T02:14:31.996Z,68.55
2018-11-05T02:15:03.107Z,68.07
2018-11-05T02:15:34.213Z,67.62
2018-11-05T02:16:05.410Z,65.35
2018-11-05T02:16:36.478Z,70.75
2018-11-05T02:17:07.643Z,67.35
2018-11-05T02:17:38.761Z,70.97
2018-11-05T02:18:09.876Z,68.78
2018-11-05T02:18:41.027Z,73.60
2018-11-05T02:19:12.190Z,62.45
2018-11-05T02:19:43.372Z,65.32
2018-11-05T02:20:14.495Z,66.37
2018-11-05T02:20:45.656Z,71.25
2018-11-05T02:21:16.758Z,67.10
2018-11-05T02:21:47.876Z,69.67
2018-11-05T02:22:19.017Z,66.17
2018-11-05T02:22:50.147Z,70.03
2018-11-05T02:23:21.247Z,71.60
2018-11-05T02:23:52.357Z,66.60
2018-11-05T02:24:23.472Z,65.42
2018-11-05T02:24:54.720Z,64.87
2018-11-05T02:25:26.168Z,68.75
2018-11-05T02:25:57.298Z,70.52
2018-11-05T02:26:28.429Z,66.07
2018-11-05T02:26:59.635Z,68.37
2018-11-05T02:27:30.734Z,67.12
2018-11-05T02:28:01.830Z,67.42
2018-11-05T02:28:32.933Z,68.15
2018-11-05T02:29:04.072Z,67.62
2018-11-05T02:29:35.193Z,71.05
2018-11-05T02:30:06.386Z,72.10
2018-11-05T02:30:37.487Z,70.03
2018-11-05T02:31:08.626Z,66.12
2018-11-05T02:31:39.730Z,69.47
2018-11-05T02:32:10.841Z,65.90
2018-11-05T02:32:41.976Z,66.72
2018-11-05T02:33:13.127Z,63.80
2018-11-05T02:33:44.250Z,70.22
2018-11-05T02:34:15.394Z,63.63
2018-11-05T02:34:46.511Z,67.53
2018-11-05T02:35:17.698Z,69.22
2018-11-05T02:35:48.831Z,66.90
2018-11-05T02:36:19.936Z,67.30
2018-11-05T02:36:51.074Z,66.50
2018-11-05T02:37:22.198Z,67.78
2018-11-05T02:37:53.332Z,69.65
2018-11-05T02:38:24.493Z,65.00
2018-11-05T02:38:55.617Z,69.22
2018-11-05T02:39:26.745Z,68.65
2018-11-05T02:39:57.867Z,67.58
2018-11-05T02:40:29.002Z,72.40
2018-11-05T02:41:00.138Z,70.60
2018-11-05T02:41:31.252Z,63.45
2018-11-05T02:42:02.368Z,69.27
2018-11-05T02:42:33.483Z,68.02
2018-11-05T02:43:04.611Z,67.95
2018-11-05T02:43:35.763Z,70.83
2018-11-05T02:44:06.920Z,66.90
2018-11-05T02:44:38.031Z,68.52
2018-11-05T02:45:09.130Z,69.55
2018-11-05T02:45:40.280Z,73.55
2018-11-05T02:46:11.438Z,71.92
2018-11-05T02:46:42.551Z,74.25
2018-11-05T02:47:13.680Z,70.83
2018-11-05T02:47:44.806Z,69.40
2018-11-05T02:48:15.931Z,69.92
2018-11-05T02:48:47.150Z,71.20
2018-11-05T02:49:18.260Z,70.67
2018-11-05T02:49:49.386Z,69.00
2018-11-05T02:50:20.500Z,74.62
2018-11-05T02:50:51.612Z,77.90
2018-11-05T02:51:22.804Z,66.77
2018-11-05T02:51:53.933Z,71.87
2018-11-05T02:52:25.036Z,71.45
2018-11-05T02:52:56.134Z,72.37
2018-11-05T02:53:27.231Z,72.75
2018-11-05T02:53:58.350Z,70.03
2018-11-05T02:54:29.467Z,74.97
2018-11-05T02:55:00.571Z,70.42
2018-11-05T02:55:31.728Z,68.37
2018-11-05T02:56:02.850Z,68.78
2018-11-05T02:56:33.983Z,71.47
2018-11-05T02:57:05.983Z,70.95
2018-11-05T02:57:37.112Z,70.78
2018-11-05T02:58:08.268Z,69.30
2018-11-05T02:58:39.406Z,71.07
2018-11-05T02:59:10.542Z,67.87
2018-11-05T02:59:41.647Z,74.70
2018-11-05T03:00:12.755Z,74.27
2018-11-05T03:00:43.891Z,76.15
2018-11-05T03:01:15.007Z,75.87
2018-11-05T03:01:46.181Z,72.47
2018-11-05T03:02:17.296Z,74.60
2018-11-05T03:02:48.433Z,76.85
2018-11-05T03:03:19.582Z,71.20
2018-11-05T03:03:50.691Z,73.62
2018-11-05T03:04:21.816Z,76.22
2018-11-05T03:04:52.995Z,67.75
2018-11-05T03:05:24.152Z,69.62
2018-11-05T03:05:55.261Z,67.35
2018-11-05T03:06:26.397Z,73.80
2018-11-05T03:06:57.526Z,71.55
2018-11-05T03:07:28.626Z,69.58
2018-11-05T03:07:59.724Z,69.03
2018-11-05T03:08:30.876Z,71.80
2018-11-05T03:09:02.028Z,65.72
2018-11-05T03:09:33.150Z,68.80
2018-11-05T03:10:04.277Z,68.55
2018-11-05T03:10:35.421Z,69.87
2018-11-05T03:11:06.527Z,66.40
2018-11-05T03:11:37.640Z,65.20
2018-11-05T03:12:08.764Z,63.87
2018-11-05T03:12:39.889Z,66.82
2018-11-05T03:13:11.022Z,66.80
2018-11-05T03:13:42.149Z,64.55
2018-11-05T03:14:13.238Z,65.00
2018-11-05T03:14:44.332Z,74.22
2018-11-05T03:15:15.433Z,70.08
2018-11-05T03:15:46.576Z,67.90
2018-11-05T03:16:17.749Z,64.70
2018-11-05T03:16:48.850Z,71.25
2018-11-05T03:17:19.947Z,69.35
2018-11-05T03:17:51.063Z,65.80
2018-11-05T03:18:22.208Z,66.85
2018-11-05T03:18:53.319Z,68.57
2018-11-05T03:19:24.431Z,66.70
2018-11-05T03:19:55.553Z,63.25
2018-11-05T03:20:26.689Z,61.65
2018-11-05T03:20:57.822Z,65.15
2018-11-05T03:21:28.981Z,66.42
2018-11-05T03:22:00.108Z,59.95
2018-11-05T03:22:31.243Z,68.92
2018-11-05T03:23:02.438Z,59.73
2018-11-05T03:23:33.576Z,62.58
2018-11-05T03:24:04.684Z,65.17
2018-11-05T03:24:35.794Z,64.40
2018-11-05T03:25:07.013Z,62.85
2018-11-05T03:25:38.172Z,63.70
2018-11-05T03:26:09.298Z,63.78
2018-11-05T03:26:40.448Z,65.35
2018-11-05T03:27:11.609Z,61.98
2018-11-05T03:27:42.761Z,64.90
2018-11-05T03:28:13.892Z,59.03
2018-11-05T03:28:45.005Z,58.10
2018-11-05T03:29:16.158Z,61.70
2018-11-05T03:29:47.290Z,61.33
2018-11-05T03:30:18.408Z,56.75
2018-11-05T03:30:49.539Z,58.75
2018-11-05T03:31:20.698Z,59.60
2018-11-05T03:31:51.829Z,61.85
2018-11-05T03:32:22.990Z,53.95
2018-11-05T03:32:54.133Z,55.60
2018-11-05T03:33:25.891Z,60.95
2018-11-05T03:33:57.012Z,57.75
2018-11-05T03:34:28.148Z,57.53
2018-11-05T03:34:59.264Z,59.58
2018-11-05T03:35:30.392Z,60.83
2018-11-05T03:36:01.581Z,54.18
2018-11-05T03:36:32.693Z,57.08
2018-11-05T03:37:03.844Z,56.60
2018-11-05T03:37:34.953Z,59.20
2018-11-05T03:38:06.099Z,59.45
2018-11-05T03:38:37.226Z,54.10
2018-11-05T03:39:08.323Z,55.60
2018-11-05T03:39:39.448Z,53.63
2018-11-05T03:40:10.579Z,54.90
2018-11-05T03:40:41.703Z,58.08
2018-11-05T03:41:12.813Z,59.05
2018-11-05T03:41:43.965Z,58.58
2018-11-05T03:42:15.148Z,56.02
2018-11-05T03:42:46.257Z,53.83
2018-11-05T03:43:17.357Z,53.15
2018-11-05T03:43:48.509Z,61.80
2018-11-05T03:44:19.624Z,53.08
2018-11-05T03:44:50.767Z,54.77
2018-11-05T03:45:21.950Z,56.88
2018-11-05T03:45:53.093Z,53.73
2018-11-05T03:46:24.220Z,49.83
2018-11-05T03:46:55.324Z,56.25
2018-11-05T03:47:26.478Z,53.20
2018-11-05T03:47:57.617Z,58.80
2018-11-05T03:48:28.742Z,53.95
2018-11-05T03:48:59.850Z,55.75
2018-11-05T03:49:30.968Z,52.95
2018-11-05T03:50:02.097Z,50.35
2018-11-05T03:50:33.227Z,54.25
2018-11-05T03:51:04.349Z,50.45
2018-11-05T03:51:35.483Z,54.67
2018-11-05T03:52:06.659Z,52.58
2018-11-05T03:52:37.769Z,54.25
2018-11-05T03:53:08.866Z,51.18
2018-11-05T03:53:40.018Z,53.45
2018-11-05T03:54:11.198Z,54.60
2018-11-05T03:54:42.321Z,51.77
2018-11-05T03:55:13.478Z,52.62
2018-11-05T03:55:44.650Z,54.60
2018-11-05T03:56:15.878Z,58.00
2018-11-05T03:56:46.974Z,55.05
2018-11-05T03:57:18.007Z,54.85
2018-11-05T03:57:49.142Z,56.10
2018-11-05T03:58:20.254Z,57.65
2018-11-05T03:58:51.380Z,53.20
2018-11-05T03:59:22.548Z,54.65
2018-11-05T03:59:53.666Z,52.73
2018-11-05T04:00:24.791Z,53.92
2018-11-05T04:00:55.893Z,55.52
2018-11-05T04:01:27.044Z,54.48
2018-11-05T04:01:58.166Z,52.03
2018-11-05T04:02:29.294Z,54.73
2018-11-05T04:03:00.419Z,55.78
2018-11-05T04:03:31.589Z,53.48
2018-11-05T04:04:02.736Z,51.55
2018-11-05T04:04:33.889Z,53.98
2018-11-05T04:05:05.009Z,55.00
2018-11-05T04:05:36.787Z,52.85
2018-11-05T04:06:07.926Z,53.70
2018-11-05T04:06:39.066Z,54.53
2018-11-05T04:07:10.206Z,53.38
2018-11-05T04:07:41.333Z,54.03
2018-11-05T04:08:12.473Z,49.15
2018-11-05T04:08:43.614Z,52.30
2018-11-05T04:09:14.753Z,48.78
2018-11-05T04:09:45.926Z,53.40
2018-11-05T04:10:17.044Z,51.73
2018-11-05T04:10:48.202Z,47.53
2018-11-05T04:11:19.352Z,49.40
2018-11-05T04:11:50.502Z,54.58
2018-11-05T04:12:21.617Z,49.88
2018-11-05T04:12:52.742Z,51.00
2018-11-05T04:13:23.907Z,51.98
2018-11-05T04:13:55.037Z,52.67
2018-11-05T04:14:26.158Z,49.98
2018-11-05T04:14:57.337Z,51.42
2018-11-05T04:15:28.530Z,49.77
2018-11-05T04:15:59.593Z,51.20
2018-11-05T04:16:30.720Z,54.73
2018-11-05T04:17:01.822Z,51.05
2018-11-05T04:17:32.935Z,51.05
2018-11-05T04:18:04.074Z,52.23
2018-11-05T04:18:35.174Z,54.48
2018-11-05T04:19:06.282Z,50.28
2018-11-05T04:19:37.399Z,50.45
2018-11-05T04:20:08.515Z,49.38
2018-11-05T04:20:39.692Z,50.78
2018-11-05T04:21:10.903Z,51.08
2018-11-05T04:21:42.046Z,48.50
2018-11-05T04:22:13.177Z,51.20
2018-11-05T04:22:44.290Z,49.77
2018-11-05T04:23:15.418Z,51.02
2018-11-05T04:23:46.548Z,52.58
2018-11-05T04:24:17.691Z,50.48
2018-11-05T04:24:48.827Z,47.53
2018-11-05T04:25:19.970Z,49.63
2018-11-05T04:25:51.087Z,49.18
2018-11-05T04:26:22.245Z,48.33
2018-11-05T04:26:53.386Z,52.85
2018-11-05T04:27:24.496Z,48.20
2018-11-05T04:27:55.696Z,46.02
2018-11-05T04:28:26.744Z,44.30
2018-11-05T04:28:57.928Z,49.63
2018-11-05T04:29:29.031Z,49.08
2018-11-05T04:30:00.144Z,47.30
2018-11-05T04:30:31.294Z,46.25
2018-11-05T04:31:02.405Z,43.00
2018-11-05T04:31:33.568Z,47.58
2018-11-05T04:32:04.715Z,44.60
2018-11-05T04:32:35.832Z,46.48
2018-11-05T04:33:06.966Z,44.98
2018-11-05T04:33:38.072Z,49.15
2018-11-05T04:34:09.187Z,50.98
2018-11-05T04:34:40.287Z,47.78
2018-11-05T04:35:11.423Z,45.03
2018-11-05T04:35:42.608Z,46.33
2018-11-05T04:36:13.718Z,48.68
2018-11-05T04:36:44.824Z,44.60
2018-11-05T04:37:15.918Z,44.65
2018-11-05T04:37:47.044Z,45.63
2018-11-05T04:38:18.170Z,44.18
2018-11-05T04:38:49.271Z,43.33
2018-11-05T04:39:20.370Z,44.65
2018-11-05T04:39:51.488Z,46.48
2018-11-05T04:40:22.660Z,46.68
2018-11-05T04:40:53.817Z,48.68
2018-11-05T04:41:24.986Z,45.17
2018-11-05T04:41:56.126Z,50.60
2018-11-05T04:42:27.259Z,46.53
2018-11-05T04:42:58.378Z,48.05
2018-11-05T04:43:29.573Z,50.58
2018-11-05T04:44:00.721Z,45.12
2018-11-05T04:44:31.867Z,44.38
2018-11-05T04:45:03.005Z,42.38
2018-11-05T04:45:34.180Z,44.18
2018-11-05T04:46:05.327Z,42.50
2018-11-05T04:46:36.475Z,44.98
2018-11-05T04:47:07.635Z,48.28
2018-11-05T04:47:38.798Z,43.73
2018-11-05T04:48:09.919Z,48.73
2018-11-05T04:48:41.034Z,47.60
2018-11-05T04:49:12.144Z,42.98
2018-11-05T04:49:43.299Z,45.30
2018-11-05T04:50:14.427Z,47.33
2018-11-05T04:50:45.527Z,44.95
2018-11-05T04:51:16.654Z,46.08
2018-11-05T04:51:47.823Z,42.05
2018-11-05T04:52:18.952Z,45.85
2018-11-05T04:52:50.059Z,44.98
2018-11-05T04:53:21.199Z,52.33
2018-11-05T04:53:52.303Z,46.95
2018-11-05T04:54:23.431Z,45.45
2018-11-05T04:54:54.566Z,44.55
2018-11-05T04:55:25.690Z,48.48
2018-11-05T04:55:56.825Z,47.13
2018-11-05T04:56:27.955Z,47.75
2018-11-05T04:56:59.103Z,45.17
2018-11-05T04:57:30.209Z,45.58
2018-11-05T04:58:01.360Z,46.70
2018-11-05T04:58:32.472Z,42.17
2018-11-05T04:59:03.576Z,47.78
2018-11-05T04:59:34.709Z,41.55
2018-11-05T05:00:05.847Z,44.55
2018-11-05T05:00:36.983Z,46.45
2018-11-05T05:01:08.103Z,45.95
2018-11-05T05:01:39.253Z,41.18
2018-11-05T05:02:10.436Z,41.40
2018-11-05T05:02:41.566Z,40.80
2018-11-05T05:03:12.710Z,42.53
2018-11-05T05:03:43.827Z,40.40
2018-11-05T05:04:14.960Z,39.53
2018-11-05T05:04:46.094Z,38.05
2018-11-05T05:05:17.225Z,41.40
2018-11-05T05:05:48.359Z,39.88
2018-11-05T05:06:19.490Z,39.80
2018-11-05T05:06:50.633Z,39.05
2018-11-05T05:07:21.812Z,36.90
2018-11-05T05:07:52.950Z,38.50
2018-11-05T05:08:24.062Z,36.15
2018-11-05T05:08:55.198Z,38.23
2018-11-05T05:09:26.338Z,39.60
2018-11-05T05:09:57.462Z,38.73
2018-11-05T05:10:28.583Z,33.28
2018-11-05T05:10:59.776Z,34.58
2018-11-05T05:11:30.893Z,33.13
2018-11-05T05:12:02.005Z,35.83
2018-11-05T05:12:33.204Z,34.33
2018-11-05T05:13:04.305Z,32.73
2018-11-05T05:13:35.419Z,35.03
2018-11-05T05:14:06.554Z,31.85
2018-11-05T05:14:37.700Z,31.85
2018-11-05T05:15:08.864Z,33.23
2018-11-05T05:15:39.997Z,30.10
2018-11-05T05:16:11.144Z,30.37
2018-11-05T05:16:42.315Z,33.65
2018-11-05T05:17:13.426Z,35.20
2018-11-05T05:17:44.579Z,28.73
2018-11-05T05:18:15.700Z,29.52
2018-11-05T05:18:46.823Z,27.42
2018-11-05T05:19:17.998Z,28.87
2018-11-05T05:19:49.139Z,31.42
2018-11-05T05:20:20.294Z,31.10
2018-11-05T05:20:51.413Z,32.73
2018-11-05T05:21:22.573Z,31.17
2018-11-05T05:21:53.734Z,30.85
2018-11-05T05:22:24.854Z,27.00
2018-11-05T05:22:56.205Z,27.17
2018-11-05T05:23:27.203Z,28.80
2018-11-05T05:23:58.355Z,28.45
2018-11-05T05:24:29.548Z,30.77
2018-11-05T05:25:00.670Z,28.32
2018-11-05T05:25:31.792Z,28.92
2018-11-05T05:26:02.933Z,27.05
2018-11-05T05:26:34.067Z,29.18
2018-11-05T05:27:05.180Z,28.38
2018-11-05T05:27:36.278Z,27.87
2018-11-05T05:28:07.381Z,26.52
2018-11-05T05:28:38.481Z,30.50
2018-11-05T05:29:09.606Z,28.73
2018-11-05T05:29:40.798Z,28.45
2018-11-05T05:30:11.898Z,27.25
2018-11-05T05:30:43.020Z,32.65
2018-11-05T05:31:14.127Z,27.87
2018-11-05T05:31:45.248Z,27.15
2018-11-05T05:32:16.423Z,26.55
2018-11-05T05:32:47.554Z,28.60
2018-11-05T05:33:18.710Z,27.77
2018-11-05T05:33:49.819Z,29.82
2018-11-05T05:34:20.946Z,26.45
2018-11-05T05:34:52.058Z,25.80
2018-11-05T05:35:23.201Z,25.02
2018-11-05T05:35:54.361Z,26.82
2018-11-05T05:36:25.489Z,26.50
2018-11-05T05:36:56.586Z,22.42
2018-11-05T05:37:27.758Z,25.32
2018-11-05T05:37:58.887Z,23.35
2018-11-05T05:38:30.031Z,24.57
2018-11-05T05:39:01.143Z,24.27
2018-11-05T05:39:32.259Z,24.50
2018-11-05T05:40:03.393Z,23.57
2018-11-05T05:40:34.660Z,21.00
2018-11-05T05:41:05.830Z,23.60
2018-11-05T05:41:36.966Z,25.62
2018-11-05T05:42:08.084Z,26.62
2018-11-05T05:42:39.239Z,20.77
2018-11-05T05:43:10.404Z,22.20
2018-11-05T05:43:41.532Z,24.45
2018-11-05T05:44:12.711Z,23.73
2018-11-05T05:44:43.864Z,21.82
2018-11-05T05:45:14.986Z,25.05
2018-11-05T05:45:46.087Z,24.75
2018-11-05T05:46:17.196Z,22.75
2018-11-05T05:46:48.358Z,24.85
2018-11-05T05:47:19.513Z,22.13
2018-11-05T05:47:50.635Z,24.35
2018-11-05T05:48:21.771Z,22.17
2018-11-05T05:48:53.017Z,21.23
2018-11-05T05:49:24.181Z,24.23
2018-11-05T05:49:55.347Z,23.02
2018-11-05T05:50:26.469Z,27.15
2018-11-05T05:50:57.600Z,24.52
2018-11-05T05:51:28.710Z,23.62
2018-11-05T05:51:59.856Z,32.90
2018-11-05T05:52:31.009Z,24.25
2018-11-05T05:53:02.130Z,24.32
2018-11-05T05:53:33.304Z,26.52
2018-11-05T05:54:04.405Z,25.35
2018-11-05T05:54:35.529Z,25.20
2018-11-05T05:55:06.665Z,22.32
2018-11-05T05:55:37.795Z,26.00
2018-11-05T05:56:08.977Z,21.37
2018-11-05T05:56:40.118Z,25.05
2018-11-05T05:57:11.323Z,25.32
2018-11-05T05:57:42.512Z,28.12
2018-11-05T05:58:13.653Z,21.80
2018-11-05T05:58:44.827Z,24.32
2018-11-05T05:59:15.954Z,29.23
2018-11-05T05:59:47.080Z,21.37
2018-11-05T06:00:18.230Z,23.22
2018-11-05T06:00:49.375Z,23.85
2018-11-05T06:01:20.511Z,23.05
2018-11-05T06:01:51.642Z,21.17
2018-11-05T06:02:22.813Z,20.40
2018-11-05T06:02:53.949Z,21.42
2018-11-05T06:03:25.081Z,20.92
2018-11-05T06:03:56.227Z,18.12
2018-11-05T06:04:27.363Z,16.17
2018-11-05T06:04:58.470Z,17.25
2018-11-05T06:05:29.621Z,19.30
2018-11-05T06:06:00.801Z,17.15
2018-11-05T06:06:31.987Z,23.38
2018-11-05T06:07:03.053Z,18.82
2018-11-05T06:07:34.151Z,19.35
2018-11-05T06:08:05.255Z,16.93
2018-11-05T06:08:36.388Z,17.30
2018-11-05T06:09:07.497Z,20.32
2018-11-05T06:09:38.633Z,17.87
2018-11-05T06:10:09.762Z,17.25
2018-11-05T06:10:40.902Z,18.55
2018-11-05T06:11:12.045Z,19.12
2018-11-05T06:11:43.158Z,21.35
2018-11-05T06:12:14.328Z,18.37
2018-11-05T06:12:45.502Z,19.37
2018-11-05T06:13:16.648Z,19.17
2018-11-05T06:13:47.759Z,20.25
2018-11-05T06:14:18.864Z,20.65
2018-11-05T06:14:50.034Z,25.32
2018-11-05T06:15:21.206Z,18.73
2018-11-05T06:15:52.360Z,17.92
2018-11-05T06:16:23.468Z,20.25
2018-11-05T06:16:54.609Z,18.77
2018-11-05T06:17:25.766Z,18.73
2018-11-05T06:17:56.874Z,18.40
2018-11-05T06:18:27.980Z,18.37
2018-11-05T06:18:59.120Z,18.87
2018-11-05T06:19:30.284Z,17.80
2018-11-05T06:20:01.434Z,20.55
2018-11-05T06:20:32.630Z,18.57
2018-11-05T06:21:03.746Z,18.77
2018-11-05T06:21:34.950Z,19.17
2018-11-05T06:22:06.053Z,21.60
2018-11-05T06:22:37.194Z,20.52
2018-11-05T06:23:08.307Z,18.87
2018-11-05T06:23:39.443Z,17.57
2018-11-05T06:24:10.564Z,18.45
2018-11-05T06:24:41.691Z,19.40
2018-11-05T06:25:12.804Z,17.23
2018-11-05T06:25:43.923Z,18.57
2018-11-05T06:26:15.049Z,17.27
2018-11-05T06:26:46.227Z,18.90
2018-11-05T06:27:17.386Z,18.50
2018-11-05T06:27:48.503Z,19.65
2018-11-05T06:28:19.753Z,18.92
2018-11-05T06:28:50.809Z,21.15
2018-11-05T06:29:21.919Z,17.98
2018-11-05T06:29:53.055Z,18.42
2018-11-05T06:30:24.211Z,19.02
2018-11-05T06:30:55.331Z,19.85
2018-11-05T06:31:26.471Z,19.65
2018-11-05T06:31:57.645Z,19.48
2018-11-05T06:32:28.762Z,20.82
2018-11-05T06:32:59.900Z,24.65
2018-11-05T06:33:31.043Z,19.40
2018-11-05T06:34:02.164Z,20.52
2018-11-05T06:34:33.287Z,21.33
2018-11-05T06:35:04.403Z,17.70
2018-11-05T06:35:35.550Z,21.73
2018-11-05T06:36:06.699Z,19.42
2018-11-05T06:36:37.845Z,19.12
2018-11-05T06:37:08.954Z,17.62
2018-11-05T06:37:40.047Z,17.00
2018-11-05T06:38:11.190Z,19.90
2018-11-05T06:38:42.304Z,19.85
2018-11-05T06:39:13.423Z,18.75
2018-11-05T06:39:44.547Z,15.68
2018-11-05T06:40:15.646Z,16.30
2018-11-05T06:40:46.794Z,15.50